Time;durP1;ratioP1;P1;durP2;ratioP2;P2;SDS_P1;SDS_P2;PMS_P1;PMS_P2;Temp;Humidity;BMP_temperature;BMP_pressure;BME280_temperature;BME280_humidity;BME280_pressure;Samples;Min_cycle;Max_cycle;Signal;HPM_P1;HPM_P2
2020/12/10 00:03:19;;;;;;;17.30;7.40;;;-0.40;99.90;;;;;;6652100;88;20247;-77
2020/12/10 00:13:20;;;;;;;20.83;8.30;;;-0.20;99.90;;;;;;6667098;88;20320;-78
2020/12/10 00:23:20;;;;;;;19.67;8.20;;;-0.10;99.90;;;;;;6737495;88;20502;-77
2020/12/10 00:33:21;;;;;;;18.37;8.00;;;0.10;99.90;;;;;;6729180;88;20201;-78
2020/12/10 00:43:22;;;;;;;17.77;7.85;;;0.20;99.90;;;;;;6675253;88;21110;-78
2020/12/10 00:53:22;;;;;;;20.02;8.43;;;0.10;99.90;;;;;;6658032;88;20279;-78
2020/12/10 01:03:23;;;;;;;20.33;8.18;;;0.10;99.90;;;;;;6645658;89;20221;-78
2020/12/10 01:13:23;;;;;;;20.83;8.45;;;0.10;99.90;;;;;;6743938;88;20176;-78
2020/12/10 01:23:24;;;;;;;19.58;8.23;;;0.10;99.90;;;;;;6643281;89;20589;-78
2020/12/10 01:33:24;;;;;;;17.80;7.62;;;0.10;99.90;;;;;;6676401;88;20181;-78
2020/12/10 01:43:25;;;;;;;19.23;8.07;;;0.00;99.90;;;;;;6732754;88;20194;-78
2020/12/10 01:53:25;;;;;;;20.15;7.90;;;0.00;99.90;;;;;;6729986;88;20251;-78
2020/12/10 02:03:26;;;;;;;20.50;8.00;;;-0.10;99.90;;;;;;6684063;88;20174;-78
2020/12/10 02:13:26;;;;;;;20.30;7.72;;;-0.20;99.90;;;;;;6734984;88;20699;-78
2020/12/10 02:23:27;;;;;;;19.35;7.82;;;-0.20;99.90;;;;;;6740940;88;20193;-78
2020/12/10 02:33:28;;;;;;;18.05;6.60;;;-0.30;99.90;;;;;;6731829;88;20187;-78
2020/12/10 02:43:28;;;;;;;20.02;8.15;;;-0.40;99.90;;;;;;6659907;88;20185;-79
2020/12/10 02:53:29;;;;;;;18.75;8.05;;;-0.40;99.90;;;;;;6742335;88;20198;-79
2020/12/10 03:03:29;;;;;;;19.17;7.10;;;-0.40;99.90;;;;;;6658460;88;20193;-79
2020/12/10 03:13:30;;;;;;;17.90;7.50;;;-0.40;99.90;;;;;;6746807;88;21136;-78
2020/12/10 03:23:30;;;;;;;19.95;7.68;;;-0.50;99.90;;;;;;6703158;88;20233;-79
2020/12/10 03:33:31;;;;;;;17.42;6.72;;;-0.50;99.90;;;;;;6666314;88;20202;-79
2020/12/10 03:43:31;;;;;;;23.35;8.57;;;-0.50;99.90;;;;;;6734659;88;20182;-79
2020/12/10 03:53:32;;;;;;;21.75;8.52;;;-0.60;99.90;;;;;;6747758;88;20263;-81
2020/12/10 04:03:33;;;;;;;20.98;8.23;;;-0.40;99.90;;;;;;6746062;88;20213;-78
2020/12/10 04:13:33;;;;;;;18.90;7.97;;;-0.40;99.90;;;;;;6748694;88;20250;-81
2020/12/10 04:23:35;;;;;;;18.75;7.93;;;-0.40;99.90;;;;;;6748245;88;20177;-79
2020/12/10 04:33:36;;;;;;;19.37;7.60;;;-0.60;99.90;;;;;;6748782;88;20186;-79
2020/12/10 04:43:36;;;;;;;19.10;7.47;;;-0.60;99.90;;;;;;6744109;88;20206;-79
2020/12/10 04:53:37;;;;;;;20.75;7.60;;;-0.50;99.90;;;;;;6660990;88;20718;-79
2020/12/10 05:03:37;;;;;;;19.17;7.40;;;-0.40;99.90;;;;;;6746995;88;20537;-78
2020/12/10 05:13:38;;;;;;;18.23;6.93;;;-0.60;99.90;;;;;;6739762;88;20608;-78
2020/12/10 05:23:39;;;;;;;19.90;7.37;;;-0.50;99.90;;;;;;6746874;88;20170;-79
2020/12/10 05:33:58;;;;;;;18.70;6.55;;;-0.60;99.90;;;;;;6743865;88;20165;-79
2020/12/10 05:44:18;;;;;;;20.17;6.75;;;-0.50;99.90;;;;;;6744177;88;20219;-78
2020/12/10 05:54:19;;;;;;;18.00;6.62;;;-0.50;99.90;;;;;;6741387;88;20588;-78
2020/12/10 06:04:21;;;;;;;15.20;6.22;;;-0.60;99.90;;;;;;6749840;88;20203;-78
2020/12/10 06:14:24;;;;;;;15.68;5.85;;;-0.60;99.90;;;;;;6743770;88;20153;-80
2020/12/10 06:34:57;;;;;;;17.17;6.93;;;-0.50;99.90;;;;;;6734064;88;20191;-81
2020/12/10 06:44:58;;;;;;;12.15;5.55;;;-0.60;99.90;;;;;;6646587;89;20214;-81
2020/12/10 06:55:05;;;;;;;18.70;6.47;;;-0.50;99.90;;;;;;6631882;89;20203;-81
2020/12/10 07:05:06;;;;;;;13.88;5.75;;;-0.50;99.90;;;;;;6629376;89;20792;-80
2020/12/10 07:25:51;;;;;;;18.00;6.72;;;-0.60;99.90;;;;;;6773223;77;20206;-77
2020/12/10 07:56:01;;;;;;;15.38;6.62;;;-0.50;99.90;;;;;;6734643;88;20201;-81
2020/12/10 08:06:08;;;;;;;15.75;6.50;;;-0.30;99.90;;;;;;6729975;88;20203;-82
2020/12/10 08:16:09;;;;;;;17.37;7.62;;;-0.10;99.90;;;;;;6730739;88;20224;-79
2020/12/10 08:26:12;;;;;;;21.80;7.55;;;-0.10;99.90;;;;;;6732645;88;20258;-82
2020/12/10 08:36:53;;;;;;;17.15;7.00;;;0.00;99.90;;;;;;6766318;77;20689;-81
2020/12/10 08:47:03;;;;;;;15.32;6.43;;;0.20;99.90;;;;;;6730135;88;20713;-79
2020/12/10 08:57:10;;;;;;;16.37;7.12;;;0.60;99.90;;;;;;6744463;88;20169;-81
2020/12/10 09:07:11;;;;;;;16.83;7.05;;;0.70;99.90;;;;;;6748147;88;20192;-80
2020/12/10 09:17:12;;;;;;;15.80;7.00;;;0.70;99.90;;;;;;6744705;88;20210;-79
2020/12/10 09:37:16;;;;;;;16.40;6.45;;;1.20;99.90;;;;;;6770932;87;20283;-78
2020/12/10 09:47:16;;;;;;;14.50;6.10;;;1.40;99.90;;;;;;6795068;77;20625;-72
2020/12/10 10:07:24;;;;;;;9.65;4.90;;;1.80;99.90;;;;;;6734351;88;20565;-72
2020/12/10 10:17:24;;;;;;;16.52;5.97;;;2.10;99.90;;;;;;6730153;88;20174;-72
2020/12/10 10:27:25;;;;;;;12.20;5.90;;;2.10;99.90;;;;;;6726191;88;20214;-73
2020/12/10 10:37:26;;;;;;;11.23;5.45;;;2.60;99.90;;;;;;6724713;88;20598;-72
2020/12/10 10:47:26;;;;;;;14.43;5.75;;;2.70;99.90;;;;;;6720879;88;20729;-73
2020/12/10 10:57:27;;;;;;;12.45;5.72;;;3.40;99.90;;;;;;6728292;88;20576;-77
2020/12/10 11:07:27;;;;;;;10.40;4.60;;;4.10;99.90;;;;;;6732134;88;20319;-73
2020/12/10 11:17:28;;;;;;;12.02;5.32;;;3.70;99.90;;;;;;6732619;88;20822;-73
2020/12/10 11:27:30;;;;;;;11.02;4.35;;;3.70;99.90;;;;;;6726636;88;20306;-72
2020/12/10 11:37:30;;;;;;;10.15;4.68;;;3.90;99.90;;;;;;6722755;88;20193;-72
2020/12/10 11:47:31;;;;;;;9.90;4.60;;;4.10;99.90;;;;;;6725051;88;20211;-72
2020/12/10 11:57:32;;;;;;;10.55;4.90;;;3.80;99.90;;;;;;6728961;88;20200;-72
2020/12/10 12:07:32;;;;;;;12.35;5.10;;;3.10;99.90;;;;;;6729136;88;20788;-71
2020/12/10 12:17:36;;;;;;;11.23;4.78;;;2.90;99.90;;;;;;6731178;88;20173;-72
2020/12/10 12:27:37;;;;;;;11.43;4.85;;;3.10;99.90;;;;;;6727304;88;20227;-72
2020/12/10 12:37:37;;;;;;;11.32;5.07;;;3.00;99.90;;;;;;6727021;88;20241;-72
2020/12/10 12:47:40;;;;;;;12.30;5.10;;;3.10;99.90;;;;;;6729290;88;20727;-72
2020/12/10 12:57:41;;;;;;;11.32;4.72;;;2.90;99.90;;;;;;6731569;88;20198;-72
2020/12/10 13:07:41;;;;;;;8.88;4.30;;;2.70;99.90;;;;;;6725938;88;20193;-72
2020/12/10 13:17:42;;;;;;;8.38;4.03;;;2.60;99.90;;;;;;6720536;88;20245;-74
2020/12/10 13:27:43;;;;;;;10.18;4.25;;;2.70;99.90;;;;;;6730424;88;20177;-73
2020/12/10 13:37:43;;;;;;;10.73;4.30;;;2.70;99.90;;;;;;6729658;88;20204;-74
2020/12/10 13:47:44;;;;;;;8.07;4.07;;;2.70;99.90;;;;;;6726274;88;20207;-73
2020/12/10 13:57:45;;;;;;;8.00;3.58;;;2.60;99.90;;;;;;6729530;88;20616;-73
2020/12/10 14:07:46;;;;;;;9.25;4.12;;;2.30;99.90;;;;;;6725692;88;20698;-73
2020/12/10 14:17:46;;;;;;;9.57;4.62;;;2.20;99.90;;;;;;6725379;88;20193;-73
2020/12/10 14:27:47;;;;;;;7.78;4.00;;;2.20;99.90;;;;;;6725108;88;20337;-73
2020/12/10 14:37:47;;;;;;;10.43;4.15;;;2.20;99.90;;;;;;6728100;88;20743;-73
2020/12/10 14:47:48;;;;;;;6.53;3.60;;;2.10;99.90;;;;;;6727623;88;20201;-72
2020/12/10 14:57:48;;;;;;;10.10;3.95;;;2.10;99.90;;;;;;6724703;88;20192;-73
2020/12/10 15:07:49;;;;;;;10.15;4.47;;;2.00;99.90;;;;;;6729421;88;20208;-73
2020/12/10 15:17:49;;;;;;;8.38;3.78;;;2.00;99.90;;;;;;6728873;88;20285;-73
2020/12/10 15:27:50;;;;;;;7.93;3.78;;;1.90;99.90;;;;;;6727668;88;20192;-73
2020/12/10 15:37:51;;;;;;;8.57;4.10;;;1.90;99.90;;;;;;6721363;88;20682;-73
2020/12/10 15:57:56;;;;;;;10.20;3.95;;;1.90;99.90;;;;;;6739269;88;20715;-77
2020/12/10 16:07:57;;;;;;;6.80;4.10;;;1.90;99.90;;;;;;6739832;88;20204;-77
2020/12/10 16:17:58;;;;;;;8.35;3.75;;;1.80;99.90;;;;;;6735214;88;20665;-76
2020/12/10 16:28:00;;;;;;;8.95;3.25;;;1.80;99.90;;;;;;6737265;88;20167;-76
2020/12/10 16:38:01;;;;;;;10.25;4.10;;;1.80;99.90;;;;;;6736336;88;20649;-77
2020/12/10 16:48:07;;;;;;;9.18;4.03;;;1.80;99.90;;;;;;6732871;88;20320;-78
2020/12/10 16:58:08;;;;;;;6.83;4.00;;;1.80;99.90;;;;;;6735467;88;20224;-78
2020/12/10 17:08:09;;;;;;;8.43;4.25;;;1.80;99.90;;;;;;6732978;88;20269;-78
2020/12/10 17:18:15;;;;;;;10.30;4.30;;;1.70;99.90;;;;;;6738948;88;20203;-78
2020/12/10 17:28:21;;;;;;;8.20;4.57;;;1.60;99.90;;;;;;6739011;88;20163;-76
2020/12/10 17:38:40;;;;;;;10.15;5.07;;;1.60;99.90;;;;;;6735117;88;20199;-77
2020/12/10 17:48:41;;;;;;;8.73;4.80;;;1.60;99.90;;;;;;6730733;88;20201;-76
2020/12/10 17:58:45;;;;;;;9.00;5.00;;;1.50;99.90;;;;;;6726310;88;20177;-75
2020/12/10 18:08:52;;;;;;;12.02;5.70;;;1.40;99.90;;;;;;6727242;88;20181;-75
2020/12/10 18:19:01;;;;;;;12.13;5.68;;;1.50;99.90;;;;;;6724702;88;20269;-77
2020/12/10 18:29:03;;;;;;;12.30;6.10;;;1.50;99.90;;;;;;6725376;88;20253;-76
2020/12/10 18:39:12;;;;;;;10.48;4.93;;;1.50;99.90;;;;;;6729304;88;20212;-75
2020/12/10 18:49:12;;;;;;;13.25;6.00;;;1.30;99.90;;;;;;6724933;88;20224;-75
2020/12/10 18:59:13;;;;;;;13.52;6.68;;;1.20;99.90;;;;;;6721861;88;20202;-75
2020/12/10 19:09:17;;;;;;;12.75;5.97;;;1.20;99.90;;;;;;6728583;88;20540;-76
2020/12/10 19:19:18;;;;;;;12.35;5.40;;;1.00;99.90;;;;;;6734001;88;20175;-76
2020/12/10 19:29:18;;;;;;;11.77;5.25;;;1.00;99.90;;;;;;6734639;88;20177;-77
2020/12/10 19:39:19;;;;;;;12.95;5.62;;;0.90;99.90;;;;;;6742473;88;20184;-77
2020/12/10 19:49:19;;;;;;;10.75;5.20;;;0.90;99.90;;;;;;6725598;88;20190;-76
2020/12/10 19:59:20;;;;;;;9.77;4.68;;;0.90;99.90;;;;;;6731461;88;20207;-77
2020/12/10 20:09:20;;;;;;;10.15;5.00;;;0.80;99.90;;;;;;6719830;88;20303;-76
2020/12/10 20:19:21;;;;;;;11.30;5.80;;;0.90;99.90;;;;;;6719903;88;20214;-77
2020/12/10 20:29:24;;;;;;;12.05;6.12;;;0.90;99.90;;;;;;6722400;88;20539;-77
2020/12/10 20:39:27;;;;;;;6.80;4.35;;;0.90;99.90;;;;;;6720850;88;20229;-77
2020/12/10 20:49:27;;;;;;;12.48;6.47;;;1.00;99.90;;;;;;6724134;88;20275;-77
2020/12/10 20:59:28;;;;;;;14.25;6.65;;;1.00;99.90;;;;;;6723571;88;20198;-77
2020/12/10 21:09:28;;;;;;;12.40;6.22;;;1.10;99.90;;;;;;6726982;88;20210;-79
2020/12/10 21:29:32;;;;;;;12.32;6.45;;;1.20;99.90;;;;;;6764951;88;20200;-76
2020/12/10 21:39:33;;;;;;;14.85;6.20;;;1.20;99.90;;;;;;6764265;88;20260;-77
2020/12/10 21:49:53;;;;;;;12.88;5.85;;;1.30;99.90;;;;;;6761875;88;20173;-77
2020/12/10 21:59:54;;;;;;;10.65;5.70;;;1.30;99.90;;;;;;6750980;88;20203;-75
2020/12/10 22:09:55;;;;;;;12.00;6.12;;;1.40;99.90;;;;;;6730294;88;20626;-75
2020/12/10 22:19:55;;;;;;;11.85;5.95;;;1.40;99.90;;;;;;6732793;88;20181;-76
2020/12/10 22:29:56;;;;;;;11.45;5.70;;;1.40;99.90;;;;;;6732653;88;20650;-77
2020/12/10 22:39:56;;;;;;;12.90;6.60;;;1.40;99.90;;;;;;6733326;88;20193;-75
2020/12/10 22:49:57;;;;;;;13.90;6.82;;;1.50;99.90;;;;;;6737118;88;20182;-77
2020/12/10 22:59:58;;;;;;;14.10;6.72;;;1.50;99.90;;;;;;6735799;88;20169;-75
2020/12/10 23:09:58;;;;;;;13.65;6.93;;;1.50;99.90;;;;;;6731440;88;20629;-74
2020/12/10 23:19:59;;;;;;;13.93;7.30;;;1.50;99.90;;;;;;6734626;88;20693;-74
2020/12/10 23:30:01;;;;;;;12.77;7.07;;;1.60;99.90;;;;;;6736872;88;20205;-75
2020/12/10 23:40:01;;;;;;;11.50;5.93;;;1.60;99.90;;;;;;6736694;88;20309;-75
2020/12/10 23:50:02;;;;;;;15.75;4.85;;;1.50;99.90;;;;;;6734305;88;20274;-74
